sensor_id;sensor_type;location;lat;lon;timestamp;temperature;humidity
5705;DHT22;2877;48.238;11.160;2023-08-08T00:01:18;11.10;99.90
5705;DHT22;2877;48.238;11.160;2023-08-08T00:03:44;11.10;99.90
5705;DHT22;2877;48.238;11.160;2023-08-08T00:06:09;11.20;99.90
5705;DHT22;2877;48.238;11.160;2023-08-08T00:08:36;11.20;99.90
5705;DHT22;2877;48.238;11.160;2023-08-08T00:11:01;11.20;99.90
5705;DHT22;2877;48.238;11.160;2023-08-08T00:13:27;11.30;99.90
5705;DHT22;2877;48.238;11.160;2023-08-08T00:15:52;11.30;99.90
5705;DHT22;2877;48.238;11.160;2023-08-08T00:18:18;11.30;99.90
5705;DHT22;2877;48.238;11.160;2023-08-08T00:20:43;11.30;99.90
5705;DHT22;2877;48.238;11.160;2023-08-08T00:23:09;11.40;99.90
5705;DHT22;2877;48.238;11.160;2023-08-08T00:25:35;11.40;99.90
5705;DHT22;2877;48.238;11.160;2023-08-08T00:28:01;11.30;99.90
5705;DHT22;2877;48.238;11.160;2023-08-08T00:30:27;11.30;99.90
5705;DHT22;2877;48.238;11.160;2023-08-08T00:32:52;11.40;99.90
5705;DHT22;2877;48.238;11.160;2023-08-08T00:35:18;11.30;99.90
5705;DHT22;2877;48.238;11.160;2023-08-08T00:37:43;11.40;99.90
5705;DHT22;2877;48.238;11.160;2023-08-08T00:40:09;11.30;99.90
5705;DHT22;2877;48.238;11.160;2023-08-08T00:42:35;11.30;99.90
5705;DHT22;2877;48.238;11.160;2023-08-08T00:45:01;11.30;99.90
5705;DHT22;2877;48.238;11.160;2023-08-08T00:47:33;11.30;99.90
5705;DHT22;2877;48.238;11.160;2023-08-08T00:50:00;11.30;99.90
5705;DHT22;2877;48.238;11.160;2023-08-08T00:52:28;11.30;99.90
5705;DHT22;2877;48.238;11.160;2023-08-08T00:54:53;11.20;99.90
5705;DHT22;2877;48.238;11.160;2023-08-08T00:57:19;11.20;99.90
5705;DHT22;2877;48.238;11.160;2023-08-08T00:59:45;11.10;99.90
5705;DHT22;2877;48.238;11.160;2023-08-08T01:02:11;11.10;99.90
5705;DHT22;2877;48.238;11.160;2023-08-08T01:04:37;11.20;99.90
5705;DHT22;2877;48.238;11.160;2023-08-08T01:07:20;11.10;99.90
5705;DHT22;2877;48.238;11.160;2023-08-08T01:12:42;11.10;99.90
5705;DHT22;2877;48.238;11.160;2023-08-08T01:15:10;11.00;99.90
5705;DHT22;2877;48.238;11.160;2023-08-08T01:17:37;11.00;99.90
5705;DHT22;2877;48.238;11.160;2023-08-08T01:20:06;11.00;99.90
5705;DHT22;2877;48.238;11.160;2023-08-08T01:25:38;10.90;99.90
5705;DHT22;2877;48.238;11.160;2023-08-08T01:28:06;10.80;99.90
5705;DHT22;2877;48.238;11.160;2023-08-08T01:30:32;10.80;99.90
5705;DHT22;2877;48.238;11.160;2023-08-08T01:32:57;10.70;99.90
5705;DHT22;2877;48.238;11.160;2023-08-08T01:35:26;10.70;99.90
5705;DHT22;2877;48.238;11.160;2023-08-08T01:38:30;10.70;99.90
5705;DHT22;2877;48.238;11.160;2023-08-08T01:40:48;10.60;99.90
5705;DHT22;2877;48.238;11.160;2023-08-08T01:43:15;10.50;99.90
5705;DHT22;2877;48.238;11.160;2023-08-08T01:45:41;10.50;99.90
5705;DHT22;2877;48.238;11.160;2023-08-08T01:48:09;10.50;99.90
5705;DHT22;2877;48.238;11.160;2023-08-08T01:50:36;10.40;99.90
5705;DHT22;2877;48.238;11.160;2023-08-08T01:53:02;10.50;99.90
5705;DHT22;2877;48.238;11.160;2023-08-08T01:55:28;10.50;99.90
5705;DHT22;2877;48.238;11.160;2023-08-08T01:57:53;10.50;99.90
5705;DHT22;2877;48.238;11.160;2023-08-08T02:00:19;10.40;99.90
5705;DHT22;2877;48.238;11.160;2023-08-08T02:02:45;10.40;99.90
5705;DHT22;2877;48.238;11.160;2023-08-08T02:05:10;10.40;99.90
5705;DHT22;2877;48.238;11.160;2023-08-08T02:07:36;10.30;99.90
5705;DHT22;2877;48.238;11.160;2023-08-08T02:10:01;10.30;99.90
5705;DHT22;2877;48.238;11.160;2023-08-08T02:12:27;10.30;99.90
5705;DHT22;2877;48.238;11.160;2023-08-08T02:14:54;10.30;99.90
5705;DHT22;2877;48.238;11.160;2023-08-08T02:17:21;10.30;99.90
5705;DHT22;2877;48.238;11.160;2023-08-08T02:19:46;10.30;99.90
5705;DHT22;2877;48.238;11.160;2023-08-08T02:22:12;10.30;99.90
5705;DHT22;2877;48.238;11.160;2023-08-08T02:24:37;10.30;99.90
5705;DHT22;2877;48.238;11.160;2023-08-08T02:27:03;10.30;99.90
5705;DHT22;2877;48.238;11.160;2023-08-08T02:29:29;10.30;99.90
5705;DHT22;2877;48.238;11.160;2023-08-08T02:31:55;10.40;99.90
5705;DHT22;2877;48.238;11.160;2023-08-08T02:34:20;10.40;99.90
5705;DHT22;2877;48.238;11.160;2023-08-08T02:36:46;10.50;99.90
5705;DHT22;2877;48.238;11.160;2023-08-08T02:39:12;10.60;99.90
5705;DHT22;2877;48.238;11.160;2023-08-08T02:41:37;10.70;99.90
5705;DHT22;2877;48.238;11.160;2023-08-08T02:44:03;10.80;99.90
5705;DHT22;2877;48.238;11.160;2023-08-08T02:46:28;10.90;99.90
5705;DHT22;2877;48.238;11.160;2023-08-08T02:48:54;10.90;99.90
5705;DHT22;2877;48.238;11.160;2023-08-08T02:51:19;11.00;99.90
5705;DHT22;2877;48.238;11.160;2023-08-08T02:53:45;11.10;99.90
5705;DHT22;2877;48.238;11.160;2023-08-08T02:56:10;11.10;99.90
5705;DHT22;2877;48.238;11.160;2023-08-08T02:58:36;11.10;99.90
5705;DHT22;2877;48.238;11.160;2023-08-08T03:01:02;11.20;99.90
5705;DHT22;2877;48.238;11.160;2023-08-08T03:03:27;11.20;99.90
5705;DHT22;2877;48.238;11.160;2023-08-08T03:05:53;11.20;99.90
5705;DHT22;2877;48.238;11.160;2023-08-08T03:08:19;11.30;99.90
5705;DHT22;2877;48.238;11.160;2023-08-08T03:10:44;11.30;99.90
5705;DHT22;2877;48.238;11.160;2023-08-08T03:13:10;11.40;99.90
5705;DHT22;2877;48.238;11.160;2023-08-08T03:15:36;11.40;99.90
5705;DHT22;2877;48.238;11.160;2023-08-08T03:18:01;11.40;99.90
5705;DHT22;2877;48.238;11.160;2023-08-08T03:20:27;11.50;99.90
5705;DHT22;2877;48.238;11.160;2023-08-08T03:22:53;11.50;99.90
5705;DHT22;2877;48.238;11.160;2023-08-08T03:25:18;11.50;99.90
5705;DHT22;2877;48.238;11.160;2023-08-08T03:27:44;11.60;99.90
5705;DHT22;2877;48.238;11.160;2023-08-08T03:30:10;11.60;99.90
5705;DHT22;2877;48.238;11.160;2023-08-08T03:32:35;11.60;99.90
5705;DHT22;2877;48.238;11.160;2023-08-08T03:35:01;11.60;99.90
5705;DHT22;2877;48.238;11.160;2023-08-08T03:37:26;11.70;99.90
5705;DHT22;2877;48.238;11.160;2023-08-08T03:39:52;11.70;99.90
5705;DHT22;2877;48.238;11.160;2023-08-08T03:42:17;11.70;99.90
5705;DHT22;2877;48.238;11.160;2023-08-08T03:44:43;11.70;99.90
5705;DHT22;2877;48.238;11.160;2023-08-08T03:47:10;11.70;99.90
5705;DHT22;2877;48.238;11.160;2023-08-08T03:49:36;11.70;99.90
5705;DHT22;2877;48.238;11.160;2023-08-08T03:52:01;11.70;99.90
5705;DHT22;2877;48.238;11.160;2023-08-08T03:54:27;11.70;99.90
5705;DHT22;2877;48.238;11.160;2023-08-08T03:56:52;11.70;99.90
5705;DHT22;2877;48.238;11.160;2023-08-08T03:59:18;11.70;99.90
5705;DHT22;2877;48.238;11.160;2023-08-08T04:01:43;11.70;99.90
5705;DHT22;2877;48.238;11.160;2023-08-08T04:04:09;11.70;99.90
5705;DHT22;2877;48.238;11.160;2023-08-08T04:06:34;11.80;99.90
5705;DHT22;2877;48.238;11.160;2023-08-08T04:09:00;11.80;99.90
5705;DHT22;2877;48.238;11.160;2023-08-08T04:11:26;11.80;99.90
5705;DHT22;2877;48.238;11.160;2023-08-08T04:13:52;11.80;99.90
5705;DHT22;2877;48.238;11.160;2023-08-08T04:16:18;11.80;99.90
5705;DHT22;2877;48.238;11.160;2023-08-08T04:18:43;11.80;99.90
5705;DHT22;2877;48.238;11.160;2023-08-08T04:21:09;11.80;99.90
5705;DHT22;2877;48.238;11.160;2023-08-08T04:23:35;11.90;99.90
5705;DHT22;2877;48.238;11.160;2023-08-08T04:26:00;11.90;99.90
5705;DHT22;2877;48.238;11.160;2023-08-08T04:28:26;11.90;99.90
5705;DHT22;2877;48.238;11.160;2023-08-08T04:30:51;11.90;99.90
5705;DHT22;2877;48.238;11.160;2023-08-08T04:33:17;11.90;99.90
5705;DHT22;2877;48.238;11.160;2023-08-08T04:35:42;12.00;99.90
5705;DHT22;2877;48.238;11.160;2023-08-08T04:38:08;12.00;99.90
5705;DHT22;2877;48.238;11.160;2023-08-08T04:40:34;12.10;99.90
5705;DHT22;2877;48.238;11.160;2023-08-08T04:43:00;12.10;99.90
5705;DHT22;2877;48.238;11.160;2023-08-08T04:45:26;12.10;99.90
5705;DHT22;2877;48.238;11.160;2023-08-08T04:47:52;12.20;99.90
5705;DHT22;2877;48.238;11.160;2023-08-08T04:50:18;12.30;99.90
5705;DHT22;2877;48.238;11.160;2023-08-08T04:52:43;12.30;99.90
5705;DHT22;2877;48.238;11.160;2023-08-08T04:55:09;12.30;99.90
5705;DHT22;2877;48.238;11.160;2023-08-08T04:57:35;12.40;99.90
5705;DHT22;2877;48.238;11.160;2023-08-08T05:00:00;12.40;99.90
5705;DHT22;2877;48.238;11.160;2023-08-08T05:02:30;12.40;99.90
5705;DHT22;2877;48.238;11.160;2023-08-08T05:04:56;12.40;99.90
5705;DHT22;2877;48.238;11.160;2023-08-08T05:07:21;12.40;99.90
5705;DHT22;2877;48.238;11.160;2023-08-08T05:09:47;12.40;99.90
5705;DHT22;2877;48.238;11.160;2023-08-08T05:12:12;12.50;99.90
5705;DHT22;2877;48.238;11.160;2023-08-08T05:14:38;12.60;99.90
5705;DHT22;2877;48.238;11.160;2023-08-08T05:17:03;12.60;99.90
5705;DHT22;2877;48.238;11.160;2023-08-08T05:19:29;12.60;99.90
5705;DHT22;2877;48.238;11.160;2023-08-08T05:21:55;12.70;99.90
5705;DHT22;2877;48.238;11.160;2023-08-08T05:24:20;12.90;99.90
5705;DHT22;2877;48.238;11.160;2023-08-08T05:26:46;13.00;99.90
5705;DHT22;2877;48.238;11.160;2023-08-08T05:29:11;13.10;99.90
5705;DHT22;2877;48.238;11.160;2023-08-08T05:31:37;13.20;99.90
5705;DHT22;2877;48.238;11.160;2023-08-08T05:34:02;13.20;99.90
5705;DHT22;2877;48.238;11.160;2023-08-08T05:36:28;13.20;99.90
5705;DHT22;2877;48.238;11.160;2023-08-08T05:38:53;13.20;99.90
5705;DHT22;2877;48.238;11.160;2023-08-08T05:41:19;13.20;99.90
5705;DHT22;2877;48.238;11.160;2023-08-08T05:43:44;13.20;99.90
5705;DHT22;2877;48.238;11.160;2023-08-08T05:46:10;13.30;99.90
5705;DHT22;2877;48.238;11.160;2023-08-08T05:48:35;13.40;99.90
5705;DHT22;2877;48.238;11.160;2023-08-08T05:51:01;13.60;99.90
5705;DHT22;2877;48.238;11.160;2023-08-08T05:53:30;13.60;99.90
5705;DHT22;2877;48.238;11.160;2023-08-08T05:55:56;13.70;99.90
5705;DHT22;2877;48.238;11.160;2023-08-08T05:58:22;13.80;99.90
5705;DHT22;2877;48.238;11.160;2023-08-08T06:00:47;13.80;99.90
5705;DHT22;2877;48.238;11.160;2023-08-08T06:03:13;13.90;99.90
5705;DHT22;2877;48.238;11.160;2023-08-08T06:05:39;13.90;99.90
5705;DHT22;2877;48.238;11.160;2023-08-08T06:08:04;14.00;99.90
5705;DHT22;2877;48.238;11.160;2023-08-08T06:10:33;14.00;99.90
5705;DHT22;2877;48.238;11.160;2023-08-08T06:12:59;14.00;99.90
5705;DHT22;2877;48.238;11.160;2023-08-08T06:15:25;14.00;99.90
5705;DHT22;2877;48.238;11.160;2023-08-08T06:17:51;14.00;99.90
5705;DHT22;2877;48.238;11.160;2023-08-08T06:20:16;14.00;99.90
5705;DHT22;2877;48.238;11.160;2023-08-08T06:22:42;14.10;99.90
5705;DHT22;2877;48.238;11.160;2023-08-08T06:25:08;14.10;99.90
5705;DHT22;2877;48.238;11.160;2023-08-08T06:27:33;14.10;99.90
5705;DHT22;2877;48.238;11.160;2023-08-08T06:29:59;14.10;99.90
5705;DHT22;2877;48.238;11.160;2023-08-08T06:32:24;14.10;99.90
5705;DHT22;2877;48.238;11.160;2023-08-08T06:34:50;14.10;99.90
5705;DHT22;2877;48.238;11.160;2023-08-08T06:37:15;14.20;99.90
5705;DHT22;2877;48.238;11.160;2023-08-08T06:39:41;14.30;99.90
5705;DHT22;2877;48.238;11.160;2023-08-08T06:42:07;14.40;99.90
5705;DHT22;2877;48.238;11.160;2023-08-08T06:44:40;14.50;99.90
5705;DHT22;2877;48.238;11.160;2023-08-08T06:47:06;14.60;99.90
5705;DHT22;2877;48.238;11.160;2023-08-08T06:49:31;14.70;99.90
5705;DHT22;2877;48.238;11.160;2023-08-08T06:51:57;14.90;99.90
5705;DHT22;2877;48.238;11.160;2023-08-08T06:54:22;15.10;99.90
5705;DHT22;2877;48.238;11.160;2023-08-08T06:56:48;15.20;99.90
5705;DHT22;2877;48.238;11.160;2023-08-08T06:59:13;15.20;99.90
5705;DHT22;2877;48.238;11.160;2023-08-08T07:01:39;15.30;99.90
5705;DHT22;2877;48.238;11.160;2023-08-08T07:04:05;15.50;99.90
5705;DHT22;2877;48.238;11.160;2023-08-08T07:06:31;15.90;99.90
5705;DHT22;2877;48.238;11.160;2023-08-08T07:08:56;16.00;99.90
5705;DHT22;2877;48.238;11.160;2023-08-08T07:11:22;15.90;99.90
5705;DHT22;2877;48.238;11.160;2023-08-08T07:13:47;15.70;99.90
5705;DHT22;2877;48.238;11.160;2023-08-08T07:16:13;15.50;99.90
5705;DHT22;2877;48.238;11.160;2023-08-08T07:18:38;15.30;99.90
5705;DHT22;2877;48.238;11.160;2023-08-08T07:21:04;15.40;99.90
5705;DHT22;2877;48.238;11.160;2023-08-08T07:23:31;15.50;99.90
5705;DHT22;2877;48.238;11.160;2023-08-08T07:25:56;15.60;99.90
5705;DHT22;2877;48.238;11.160;2023-08-08T07:28:22;15.70;99.90
5705;DHT22;2877;48.238;11.160;2023-08-08T07:30:47;15.50;99.90
5705;DHT22;2877;48.238;11.160;2023-08-08T07:33:13;15.60;99.90
5705;DHT22;2877;48.238;11.160;2023-08-08T07:35:39;15.90;99.90
5705;DHT22;2877;48.238;11.160;2023-08-08T07:38:04;16.00;99.90
5705;DHT22;2877;48.238;11.160;2023-08-08T07:40:31;16.20;99.90
5705;DHT22;2877;48.238;11.160;2023-08-08T07:42:56;16.30;99.90
5705;DHT22;2877;48.238;11.160;2023-08-08T07:45:22;16.20;99.90
5705;DHT22;2877;48.238;11.160;2023-08-08T07:47:47;16.40;99.90
5705;DHT22;2877;48.238;11.160;2023-08-08T07:50:13;16.50;99.90
5705;DHT22;2877;48.238;11.160;2023-08-08T07:52:40;16.40;99.90
5705;DHT22;2877;48.238;11.160;2023-08-08T07:55:06;16.40;99.90
5705;DHT22;2877;48.238;11.160;2023-08-08T07:57:32;16.40;99.90
5705;DHT22;2877;48.238;11.160;2023-08-08T08:00:02;16.50;99.90
5705;DHT22;2877;48.238;11.160;2023-08-08T08:02:33;16.60;99.90
5705;DHT22;2877;48.238;11.160;2023-08-08T08:04:59;16.80;99.90
5705;DHT22;2877;48.238;11.160;2023-08-08T08:07:24;17.10;99.90
5705;DHT22;2877;48.238;11.160;2023-08-08T08:09:50;17.20;99.90
5705;DHT22;2877;48.238;11.160;2023-08-08T08:12:16;17.40;99.90
5705;DHT22;2877;48.238;11.160;2023-08-08T08:14:41;17.50;99.90
5705;DHT22;2877;48.238;11.160;2023-08-08T08:17:07;17.60;99.90
5705;DHT22;2877;48.238;11.160;2023-08-08T08:19:34;17.60;99.90
5705;DHT22;2877;48.238;11.160;2023-08-08T08:21:59;17.70;99.90
5705;DHT22;2877;48.238;11.160;2023-08-08T08:24:25;17.40;99.90
5705;DHT22;2877;48.238;11.160;2023-08-08T08:26:50;17.40;99.90
5705;DHT22;2877;48.238;11.160;2023-08-08T08:29:16;17.70;99.90
5705;DHT22;2877;48.238;11.160;2023-08-08T08:31:42;18.00;99.90
5705;DHT22;2877;48.238;11.160;2023-08-08T08:34:07;18.10;99.90
5705;DHT22;2877;48.238;11.160;2023-08-08T08:36:33;17.60;99.90
5705;DHT22;2877;48.238;11.160;2023-08-08T08:38:58;17.40;99.90
5705;DHT22;2877;48.238;11.160;2023-08-08T08:41:26;17.50;99.90
5705;DHT22;2877;48.238;11.160;2023-08-08T08:43:54;17.60;99.90
5705;DHT22;2877;48.238;11.160;2023-08-08T08:46:21;17.30;99.90
5705;DHT22;2877;48.238;11.160;2023-08-08T08:48:50;17.40;99.90
5705;DHT22;2877;48.238;11.160;2023-08-08T08:51:18;17.80;99.90
5705;DHT22;2877;48.238;11.160;2023-08-08T08:53:44;17.90;99.90
5705;DHT22;2877;48.238;11.160;2023-08-08T08:56:14;18.20;99.90
5705;DHT22;2877;48.238;11.160;2023-08-08T08:58:41;18.40;99.90
5705;DHT22;2877;48.238;11.160;2023-08-08T09:01:10;18.70;99.90
5705;DHT22;2877;48.238;11.160;2023-08-08T09:03:36;18.60;99.90
5705;DHT22;2877;48.238;11.160;2023-08-08T09:06:03;18.60;99.90
5705;DHT22;2877;48.238;11.160;2023-08-08T09:08:29;18.30;99.90
5705;DHT22;2877;48.238;11.160;2023-08-08T09:10:56;18.60;99.90
5705;DHT22;2877;48.238;11.160;2023-08-08T09:13:22;18.50;99.90
5705;DHT22;2877;48.238;11.160;2023-08-08T09:15:48;18.50;99.90
5705;DHT22;2877;48.238;11.160;2023-08-08T09:18:14;18.50;99.90
5705;DHT22;2877;48.238;11.160;2023-08-08T09:20:40;18.90;99.90
5705;DHT22;2877;48.238;11.160;2023-08-08T09:23:05;18.90;99.90
5705;DHT22;2877;48.238;11.160;2023-08-08T09:25:31;19.30;99.90
5705;DHT22;2877;48.238;11.160;2023-08-08T09:27:57;19.40;99.90
5705;DHT22;2877;48.238;11.160;2023-08-08T09:30:22;19.30;99.90
5705;DHT22;2877;48.238;11.160;2023-08-08T09:32:48;19.30;99.70
5705;DHT22;2877;48.238;11.160;2023-08-08T09:35:14;19.00;99.20
5705;DHT22;2877;48.238;11.160;2023-08-08T09:37:40;18.80;99.90
5705;DHT22;2877;48.238;11.160;2023-08-08T09:40:06;18.90;99.50
5705;DHT22;2877;48.238;11.160;2023-08-08T09:42:33;19.00;99.90
5705;DHT22;2877;48.238;11.160;2023-08-08T09:45:00;19.20;99.80
5705;DHT22;2877;48.238;11.160;2023-08-08T09:47:26;19.60;99.90
5705;DHT22;2877;48.238;11.160;2023-08-08T09:50:00;20.20;98.50
5705;DHT22;2877;48.238;11.160;2023-08-08T09:52:27;20.30;95.40
5705;DHT22;2877;48.238;11.160;2023-08-08T09:54:53;20.10;94.40
5705;DHT22;2877;48.238;11.160;2023-08-08T09:57:19;19.80;94.60
5705;DHT22;2877;48.238;11.160;2023-08-08T09:59:45;19.90;95.50
5705;DHT22;2877;48.238;11.160;2023-08-08T10:02:14;19.90;95.60
5705;DHT22;2877;48.238;11.160;2023-08-08T10:04:41;20.10;93.90
5705;DHT22;2877;48.238;11.160;2023-08-08T10:07:07;20.30;93.90
5705;DHT22;2877;48.238;11.160;2023-08-08T10:09:33;20.50;93.60
5705;DHT22;2877;48.238;11.160;2023-08-08T10:11:59;20.60;93.40
5705;DHT22;2877;48.238;11.160;2023-08-08T10:14:34;20.50;93.90
5705;DHT22;2877;48.238;11.160;2023-08-08T10:17:02;20.80;93.50
5705;DHT22;2877;48.238;11.160;2023-08-08T10:19:28;20.60;93.20
5705;DHT22;2877;48.238;11.160;2023-08-08T10:22:04;20.30;93.30
5705;DHT22;2877;48.238;11.160;2023-08-08T10:24:35;20.70;92.20
5705;DHT22;2877;48.238;11.160;2023-08-08T10:27:01;20.90;91.90
5705;DHT22;2877;48.238;11.160;2023-08-08T10:29:32;21.10;92.70
5705;DHT22;2877;48.238;11.160;2023-08-08T10:32:03;21.30;91.40
5705;DHT22;2877;48.238;11.160;2023-08-08T10:34:41;21.30;90.30
5705;DHT22;2877;48.238;11.160;2023-08-08T10:37:14;20.70;91.50
5705;DHT22;2877;48.238;11.160;2023-08-08T10:40:00;20.60;90.40
5705;DHT22;2877;48.238;11.160;2023-08-08T10:42:27;20.00;91.10
5705;DHT22;2877;48.238;11.160;2023-08-08T10:45:00;20.10;91.80
5705;DHT22;2877;48.238;11.160;2023-08-08T10:47:30;20.30;91.20
5705;DHT22;2877;48.238;11.160;2023-08-08T10:50:09;20.70;91.90
5705;DHT22;2877;48.238;11.160;2023-08-08T10:52:55;21.20;92.30
5705;DHT22;2877;48.238;11.160;2023-08-08T10:55:36;21.20;90.60
5705;DHT22;2877;48.238;11.160;2023-08-08T10:58:06;21.30;89.50
5705;DHT22;2877;48.238;11.160;2023-08-08T11:00:34;21.60;87.50
5705;DHT22;2877;48.238;11.160;2023-08-08T11:03:00;21.10;82.30
5705;DHT22;2877;48.238;11.160;2023-08-08T11:05:29;20.30;90.30
5705;DHT22;2877;48.238;11.160;2023-08-08T11:07:56;20.90;90.30
5705;DHT22;2877;48.238;11.160;2023-08-08T11:10:21;21.60;87.50
5705;DHT22;2877;48.238;11.160;2023-08-08T11:13:02;21.60;83.00
5705;DHT22;2877;48.238;11.160;2023-08-08T11:15:29;21.90;83.50
5705;DHT22;2877;48.238;11.160;2023-08-08T11:17:57;22.00;83.40
5705;DHT22;2877;48.238;11.160;2023-08-08T11:20:24;22.40;81.80
5705;DHT22;2877;48.238;11.160;2023-08-08T11:22:56;22.20;81.90
5705;DHT22;2877;48.238;11.160;2023-08-08T11:25:25;22.40;80.50
5705;DHT22;2877;48.238;11.160;2023-08-08T11:27:52;21.10;80.90
5705;DHT22;2877;48.238;11.160;2023-08-08T11:30:18;20.90;82.70
5705;DHT22;2877;48.238;11.160;2023-08-08T11:32:45;21.10;84.00
5705;DHT22;2877;48.238;11.160;2023-08-08T11:35:11;21.90;81.00
5705;DHT22;2877;48.238;11.160;2023-08-08T11:37:37;22.10;80.60
5705;DHT22;2877;48.238;11.160;2023-08-08T11:40:03;21.50;78.70
5705;DHT22;2877;48.238;11.160;2023-08-08T11:42:31;20.70;78.50
5705;DHT22;2877;48.238;11.160;2023-08-08T11:44:57;20.80;82.20
5705;DHT22;2877;48.238;11.160;2023-08-08T11:47:26;21.20;80.40
5705;DHT22;2877;48.238;11.160;2023-08-08T11:49:52;21.30;83.20
5705;DHT22;2877;48.238;11.160;2023-08-08T11:52:19;21.40;79.00
5705;DHT22;2877;48.238;11.160;2023-08-08T11:54:51;21.40;82.00
5705;DHT22;2877;48.238;11.160;2023-08-08T11:57:16;22.10;80.40
5705;DHT22;2877;48.238;11.160;2023-08-08T11:59:42;22.40;77.60
5705;DHT22;2877;48.238;11.160;2023-08-08T12:02:09;22.80;76.90
5705;DHT22;2877;48.238;11.160;2023-08-08T12:04:35;23.00;78.00
5705;DHT22;2877;48.238;11.160;2023-08-08T12:07:02;23.40;75.50
5705;DHT22;2877;48.238;11.160;2023-08-08T12:09:31;22.90;72.40
5705;DHT22;2877;48.238;11.160;2023-08-08T12:12:02;22.20;72.30
5705;DHT22;2877;48.238;11.160;2023-08-08T12:14:28;22.30;75.20
5705;DHT22;2877;48.238;11.160;2023-08-08T12:16:54;22.30;77.20
5705;DHT22;2877;48.238;11.160;2023-08-08T12:19:23;22.40;76.70
5705;DHT22;2877;48.238;11.160;2023-08-08T12:21:50;22.20;73.10
5705;DHT22;2877;48.238;11.160;2023-08-08T12:24:19;22.30;76.20
5705;DHT22;2877;48.238;11.160;2023-08-08T12:26:45;23.00;73.60
5705;DHT22;2877;48.238;11.160;2023-08-08T12:29:11;23.50;72.80
5705;DHT22;2877;48.238;11.160;2023-08-08T12:31:37;23.50;74.10
5705;DHT22;2877;48.238;11.160;2023-08-08T12:34:03;23.70;70.60
5705;DHT22;2877;48.238;11.160;2023-08-08T12:36:30;23.90;73.40
5705;DHT22;2877;48.238;11.160;2023-08-08T12:38:55;24.60;71.30
5705;DHT22;2877;48.238;11.160;2023-08-08T12:41:22;24.20;68.20
5705;DHT22;2877;48.238;11.160;2023-08-08T12:43:48;24.00;68.90
5705;DHT22;2877;48.238;11.160;2023-08-08T12:46:15;24.10;69.00
5705;DHT22;2877;48.238;11.160;2023-08-08T12:48:40;24.20;73.10
5705;DHT22;2877;48.238;11.160;2023-08-08T12:51:06;23.70;68.50
5705;DHT22;2877;48.238;11.160;2023-08-08T12:53:34;23.60;71.10
5705;DHT22;2877;48.238;11.160;2023-08-08T12:56:00;24.20;71.00
5705;DHT22;2877;48.238;11.160;2023-08-08T12:58:25;24.40;69.40
5705;DHT22;2877;48.238;11.160;2023-08-08T13:00:51;23.80;66.20
5705;DHT22;2877;48.238;11.160;2023-08-08T13:03:16;23.70;69.30
5705;DHT22;2877;48.238;11.160;2023-08-08T13:05:42;24.20;68.50
5705;DHT22;2877;48.238;11.160;2023-08-08T13:08:08;25.10;68.60
5705;DHT22;2877;48.238;11.160;2023-08-08T13:10:35;26.40;65.40
5705;DHT22;2877;48.238;11.160;2023-08-08T13:13:01;25.60;63.40
5705;DHT22;2877;48.238;11.160;2023-08-08T13:15:27;25.90;64.90
5705;DHT22;2877;48.238;11.160;2023-08-08T13:17:52;26.00;62.30
5705;DHT22;2877;48.238;11.160;2023-08-08T13:20:18;25.40;63.00
5705;DHT22;2877;48.238;11.160;2023-08-08T13:22:43;25.20;64.20
5705;DHT22;2877;48.238;11.160;2023-08-08T13:25:09;24.00;65.10
5705;DHT22;2877;48.238;11.160;2023-08-08T13:27:35;24.10;64.90
5705;DHT22;2877;48.238;11.160;2023-08-08T13:30:01;24.50;63.20
5705;DHT22;2877;48.238;11.160;2023-08-08T13:32:27;23.20;64.60
5705;DHT22;2877;48.238;11.160;2023-08-08T13:34:53;23.50;66.00
5705;DHT22;2877;48.238;11.160;2023-08-08T13:37:19;23.80;63.50
5705;DHT22;2877;48.238;11.160;2023-08-08T13:39:45;23.00;64.40
5705;DHT22;2877;48.238;11.160;2023-08-08T13:42:10;23.90;65.90
5705;DHT22;2877;48.238;11.160;2023-08-08T13:44:36;25.10;63.00
5705;DHT22;2877;48.238;11.160;2023-08-08T13:47:01;25.40;63.30
5705;DHT22;2877;48.238;11.160;2023-08-08T13:49:27;25.10;60.50
5705;DHT22;2877;48.238;11.160;2023-08-08T13:51:53;25.30;62.00
5705;DHT22;2877;48.238;11.160;2023-08-08T13:54:19;25.40;60.20
5705;DHT22;2877;48.238;11.160;2023-08-08T13:56:48;26.00;61.80
5705;DHT22;2877;48.238;11.160;2023-08-08T13:59:14;26.70;60.10
5705;DHT22;2877;48.238;11.160;2023-08-08T14:01:39;27.20;59.10
5705;DHT22;2877;48.238;11.160;2023-08-08T14:04:05;27.70;59.80
5705;DHT22;2877;48.238;11.160;2023-08-08T14:06:31;27.60;56.50
5705;DHT22;2877;48.238;11.160;2023-08-08T14:08:56;27.30;59.10
5705;DHT22;2877;48.238;11.160;2023-08-08T14:11:22;25.80;57.20
5705;DHT22;2877;48.238;11.160;2023-08-08T14:13:48;24.30;60.00
5705;DHT22;2877;48.238;11.160;2023-08-08T14:16:14;24.00;63.60
5705;DHT22;2877;48.238;11.160;2023-08-08T14:18:39;25.10;62.30
5705;DHT22;2877;48.238;11.160;2023-08-08T14:21:05;26.80;60.50
5705;DHT22;2877;48.238;11.160;2023-08-08T14:23:31;26.60;59.40
5705;DHT22;2877;48.238;11.160;2023-08-08T14:25:57;26.30;59.70
5705;DHT22;2877;48.238;11.160;2023-08-08T14:28:22;27.00;59.10
5705;DHT22;2877;48.238;11.160;2023-08-08T14:30:48;27.20;56.80
5705;DHT22;2877;48.238;11.160;2023-08-08T14:33:15;25.80;59.30
5705;DHT22;2877;48.238;11.160;2023-08-08T14:35:41;25.30;58.80
5705;DHT22;2877;48.238;11.160;2023-08-08T14:38:07;25.50;59.00
5705;DHT22;2877;48.238;11.160;2023-08-08T14:40:33;26.10;59.80
5705;DHT22;2877;48.238;11.160;2023-08-08T14:43:00;26.10;56.10
5705;DHT22;2877;48.238;11.160;2023-08-08T14:45:26;24.90;58.90
5705;DHT22;2877;48.238;11.160;2023-08-08T14:47:52;25.00;58.60
5705;DHT22;2877;48.238;11.160;2023-08-08T14:50:18;24.60;59.00
5705;DHT22;2877;48.238;11.160;2023-08-08T14:52:44;24.10;60.70
5705;DHT22;2877;48.238;11.160;2023-08-08T14:55:10;24.20;60.90
5705;DHT22;2877;48.238;11.160;2023-08-08T14:57:36;23.80;61.90
5705;DHT22;2877;48.238;11.160;2023-08-08T15:00:02;23.20;63.70
5705;DHT22;2877;48.238;11.160;2023-08-08T15:02:28;22.30;65.50
5705;DHT22;2877;48.238;11.160;2023-08-08T15:04:53;21.90;67.50
5705;DHT22;2877;48.238;11.160;2023-08-08T15:07:19;21.90;67.50
5705;DHT22;2877;48.238;11.160;2023-08-08T15:09:45;21.70;66.10
5705;DHT22;2877;48.238;11.160;2023-08-08T15:12:14;21.40;68.10
5705;DHT22;2877;48.238;11.160;2023-08-08T15:14:41;21.80;70.30
5705;DHT22;2877;48.238;11.160;2023-08-08T15:17:07;22.10;68.80
5705;DHT22;2877;48.238;11.160;2023-08-08T15:19:32;22.50;67.40
5705;DHT22;2877;48.238;11.160;2023-08-08T15:21:58;22.20;66.00
5705;DHT22;2877;48.238;11.160;2023-08-08T15:24:23;21.70;68.80
5705;DHT22;2877;48.238;11.160;2023-08-08T15:26:49;21.70;68.80
5705;DHT22;2877;48.238;11.160;2023-08-08T15:29:14;21.30;68.10
5705;DHT22;2877;48.238;11.160;2023-08-08T15:31:40;21.50;70.70
5705;DHT22;2877;48.238;11.160;2023-08-08T15:34:06;21.50;71.30
5705;DHT22;2877;48.238;11.160;2023-08-08T15:36:31;21.80;69.40
5705;DHT22;2877;48.238;11.160;2023-08-08T15:38:57;21.90;68.80
5705;DHT22;2877;48.238;11.160;2023-08-08T15:41:22;21.80;67.50
5705;DHT22;2877;48.238;11.160;2023-08-08T15:43:48;21.90;69.10
5705;DHT22;2877;48.238;11.160;2023-08-08T15:46:14;21.60;66.10